createdAt,value
2023-11-05T00:00:45.146Z,83.50
2023-11-05T00:03:12.830Z,83.40
2023-11-05T00:05:39.894Z,83.40
2023-11-05T00:08:07.581Z,83.50
2023-11-05T00:10:34.682Z,83.40
2023-11-05T00:13:02.185Z,83.30
2023-11-05T00:15:29.276Z,83.30
2023-11-05T00:17:58.742Z,83.20
2023-11-05T00:20:25.956Z,83.20
2023-11-05T00:22:53.036Z,83.20
2023-11-05T00:25:20.367Z,83.10
2023-11-05T00:27:47.483Z,83.20
2023-11-05T00:30:14.429Z,83.20
2023-11-05T00:32:41.952Z,83.30
2023-11-05T00:35:09.606Z,83.30
2023-11-05T00:37:36.680Z,83.50
2023-11-05T00:40:06.323Z,83.60
2023-11-05T00:42:33.635Z,83.70
2023-11-05T00:45:00.511Z,83.60
2023-11-05T00:47:27.751Z,83.60
2023-11-05T00:49:54.803Z,83.70
2023-11-05T00:52:21.907Z,83.80
2023-11-05T00:54:49.334Z,83.80
2023-11-05T00:57:16.385Z,83.80
2023-11-05T00:59:43.628Z,83.80
2023-11-05T01:02:12.005Z,83.80
2023-11-05T01:04:39.090Z,83.70
2023-11-05T01:07:06.484Z,83.70
2023-11-05T01:09:33.622Z,83.70
2023-11-05T01:12:00.671Z,83.80
2023-11-05T01:14:27.872Z,83.80
2023-11-05T01:16:54.922Z,83.70
2023-11-05T01:19:21.953Z,83.60
2023-11-05T01:21:49.084Z,83.70
2023-11-05T01:24:17.326Z,83.60
2023-11-05T01:26:44.459Z,83.50
2023-11-05T01:29:11.432Z,83.60
2023-11-05T01:31:38.413Z,83.60
2023-11-05T01:34:05.859Z,83.60
2023-11-05T01:36:32.872Z,83.60
2023-11-05T01:38:59.910Z,83.60
2023-11-05T01:41:27.029Z,83.50
2023-11-05T01:43:53.955Z,83.60
2023-11-05T01:46:21.210Z,83.60
2023-11-05T01:48:48.531Z,83.60
2023-11-05T01:51:16.204Z,83.70
2023-11-05T01:53:51.851Z,83.70
2023-11-05T01:56:21.477Z,83.70
2023-11-05T01:58:54.360Z,83.70
2023-11-05T02:01:21.631Z,83.70
2023-11-05T02:03:48.795Z,83.60
2023-11-05T02:06:16.100Z,83.70
2023-11-05T02:08:44.639Z,83.70
2023-11-05T02:11:11.902Z,83.60
2023-11-05T02:13:46.384Z,83.60
2023-11-05T02:16:14.966Z,83.60
2023-11-05T02:18:42.139Z,83.60
2023-11-05T02:21:11.231Z,83.60
2023-11-05T02:23:38.582Z,83.50
2023-11-05T02:26:05.792Z,83.60
2023-11-05T02:28:34.088Z,83.70
2023-11-05T02:31:01.254Z,83.80
2023-11-05T02:33:28.298Z,83.70
2023-11-05T02:35:55.454Z,83.70
2023-11-05T02:38:22.506Z,83.80
2023-11-05T02:40:49.747Z,83.80
2023-11-05T02:43:16.921Z,83.80
2023-11-05T02:45:44.027Z,83.90
2023-11-05T02:48:11.102Z,83.80
2023-11-05T02:50:38.223Z,83.90
2023-11-05T02:53:05.291Z,83.80
2023-11-05T02:55:32.266Z,83.80
2023-11-05T02:57:59.355Z,83.90
2023-11-05T03:00:29.728Z,83.90
2023-11-05T03:02:58.026Z,83.90
2023-11-05T03:05:27.058Z,83.90
2023-11-05T03:07:54.241Z,83.90
2023-11-05T03:10:21.615Z,83.90
2023-11-05T03:12:48.991Z,83.80
2023-11-05T03:15:16.242Z,83.80
2023-11-05T03:17:43.655Z,83.90
2023-11-05T03:20:11.014Z,83.90
2023-11-05T03:22:39.278Z,84.00
2023-11-05T03:25:07.091Z,84.00
2023-11-05T03:27:34.780Z,83.90
2023-11-05T03:30:02.838Z,83.80
2023-11-05T03:32:30.313Z,83.90
2023-11-05T03:34:57.792Z,83.90
2023-11-05T03:37:25.368Z,84.00
2023-11-05T03:39:52.530Z,84.00
2023-11-05T03:42:22.874Z,84.00
2023-11-05T03:44:50.072Z,84.00
2023-11-05T03:47:17.018Z,84.00
2023-11-05T03:49:44.072Z,84.00
2023-11-05T03:52:12.436Z,84.10
2023-11-05T03:54:39.476Z,84.10
2023-11-05T03:57:06.643Z,84.10
2023-11-05T03:59:33.786Z,84.10
2023-11-05T04:02:00.860Z,84.10
2023-11-05T04:04:28.905Z,84.00
2023-11-05T04:06:55.990Z,84.00
2023-11-05T04:09:23.217Z,84.00
2023-11-05T04:11:50.534Z,84.00
2023-11-05T04:14:17.633Z,84.00
2023-11-05T04:16:44.899Z,84.00
2023-11-05T04:19:13.866Z,83.90
2023-11-05T04:21:40.897Z,84.00
2023-11-05T04:24:08.122Z,84.00
2023-11-05T04:26:35.274Z,83.90
2023-11-05T04:29:02.228Z,83.70
2023-11-05T04:31:29.451Z,83.80
2023-11-05T04:33:56.668Z,83.60
2023-11-05T04:36:23.681Z,83.60
2023-11-05T04:38:50.701Z,83.70
2023-11-05T04:41:22.332Z,83.70
2023-11-05T04:43:49.391Z,83.70
2023-11-05T04:46:16.736Z,83.80
2023-11-05T04:48:44.295Z,83.80
2023-11-05T04:51:11.369Z,83.80
2023-11-05T04:53:39.702Z,83.80
2023-11-05T04:56:07.131Z,83.80
2023-11-05T04:58:34.133Z,83.70
2023-11-05T05:01:01.206Z,83.60
2023-11-05T05:03:28.483Z,83.40
2023-11-05T05:05:55.510Z,83.50
2023-11-05T05:08:22.866Z,83.60
2023-11-05T05:10:50.346Z,83.70
2023-11-05T05:13:17.627Z,83.90
2023-11-05T05:15:44.780Z,83.90
2023-11-05T05:18:12.212Z,84.00
2023-11-05T05:20:39.436Z,84.00
2023-11-05T05:23:06.461Z,84.00
2023-11-05T05:25:34.169Z,84.00
2023-11-05T05:28:01.202Z,83.90
2023-11-05T05:30:28.140Z,83.90
2023-11-05T05:32:55.746Z,83.90
2023-11-05T05:35:22.790Z,83.90
2023-11-05T05:37:49.841Z,83.90
2023-11-05T05:40:17.109Z,83.80
2023-11-05T05:42:44.169Z,83.90
2023-11-05T05:45:11.639Z,83.80
2023-11-05T05:47:39.040Z,83.90
2023-11-05T05:50:08.081Z,83.90
2023-11-05T05:52:35.392Z,83.90
2023-11-05T05:55:06.270Z,83.80
2023-11-05T05:57:33.402Z,83.80
2023-11-05T06:00:01.297Z,83.90
2023-11-05T06:02:33.977Z,83.90
2023-11-05T06:05:01.719Z,83.90
2023-11-05T06:07:32.806Z,83.80
2023-11-05T06:10:00.386Z,83.90
2023-11-05T06:12:28.263Z,84.00
2023-11-05T06:15:03.356Z,83.90
2023-11-05T06:17:36.022Z,83.90
2023-11-05T06:20:06.792Z,83.90
2023-11-05T06:22:36.402Z,84.00
2023-11-05T06:25:06.102Z,83.90
2023-11-05T06:27:33.176Z,83.90
2023-11-05T06:30:02.563Z,83.90
2023-11-05T06:32:29.918Z,83.90
2023-11-05T06:34:59.478Z,84.00
2023-11-05T06:37:28.511Z,84.00
2023-11-05T06:39:55.714Z,83.90
2023-11-05T06:42:22.877Z,84.00
2023-11-05T06:44:49.954Z,83.90
2023-11-05T06:47:17.122Z,84.00
2023-11-05T06:49:44.295Z,84.00
2023-11-05T06:52:11.641Z,84.00
2023-11-05T06:54:41.209Z,84.00
2023-11-05T06:57:08.465Z,84.00
2023-11-05T06:59:35.575Z,84.10
2023-11-05T07:02:23.940Z,84.10
2023-11-05T07:04:51.079Z,84.20
2023-11-05T07:07:19.609Z,84.20
2023-11-05T07:09:49.359Z,84.20
2023-11-05T07:12:16.686Z,84.40
2023-11-05T07:14:43.534Z,84.30
2023-11-05T07:17:10.658Z,84.40
2023-11-05T07:19:37.666Z,84.40
2023-11-05T07:22:05.104Z,84.50
2023-11-05T07:24:32.042Z,84.50
2023-11-05T07:27:00.393Z,84.40
2023-11-05T07:29:27.257Z,84.40
2023-11-05T07:31:55.268Z,84.30
2023-11-05T07:34:22.162Z,84.20
2023-11-05T07:36:49.059Z,84.20
2023-11-05T07:39:17.006Z,84.20
2023-11-05T07:41:44.065Z,84.10
2023-11-05T07:44:10.881Z,84.20
2023-11-05T07:46:38.157Z,84.30
2023-11-05T07:49:08.074Z,84.30
2023-11-05T07:51:42.971Z,84.30
2023-11-05T07:54:10.415Z,84.30
2023-11-05T07:56:37.727Z,84.20
2023-11-05T07:59:05.001Z,84.10
2023-11-05T08:01:33.042Z,84.00
2023-11-05T08:04:00.494Z,84.00
2023-11-05T08:06:28.060Z,84.10
2023-11-05T08:08:55.185Z,84.00
2023-11-05T08:11:22.230Z,84.00
2023-11-05T08:13:50.167Z,84.00
2023-11-05T08:16:17.378Z,84.00
2023-11-05T08:18:44.525Z,84.10
2023-11-05T08:21:11.683Z,84.10
2023-11-05T08:23:38.871Z,83.90
2023-11-05T08:26:06.247Z,83.90
2023-11-05T08:28:34.229Z,84.10
2023-11-05T08:31:01.307Z,84.00
2023-11-05T08:33:29.800Z,84.20
2023-11-05T08:35:56.763Z,84.30
2023-11-05T08:38:23.792Z,84.10
2023-11-05T08:40:50.858Z,84.20
2023-11-05T08:43:18.106Z,84.00
2023-11-05T08:45:50.215Z,83.90
2023-11-05T08:48:19.638Z,83.90
2023-11-05T08:50:46.547Z,84.00
2023-11-05T08:53:13.536Z,83.90
2023-11-05T08:55:40.568Z,84.00
2023-11-05T08:58:08.356Z,84.10
2023-11-05T09:00:36.762Z,84.10
2023-11-05T09:03:06.510Z,83.80
2023-11-05T09:05:33.652Z,83.80
2023-11-05T09:08:00.926Z,83.80
2023-11-05T09:10:28.366Z,83.90
2023-11-05T09:12:55.866Z,83.40
2023-11-05T09:15:24.374Z,83.60
2023-11-05T09:17:52.204Z,83.70
2023-11-05T09:20:19.854Z,83.80
2023-11-05T09:22:47.696Z,83.10
2023-11-05T09:25:15.846Z,82.40
2023-11-05T09:27:42.990Z,82.50
2023-11-05T09:30:13.633Z,82.90
2023-11-05T09:32:42.078Z,83.10
2023-11-05T09:35:13.576Z,83.10
2023-11-05T09:37:44.321Z,83.10
2023-11-05T09:40:16.708Z,83.10
2023-11-05T09:43:06.713Z,83.10
2023-11-05T09:45:37.571Z,82.60
2023-11-05T09:48:10.223Z,83.00
2023-11-05T09:50:38.585Z,83.10
2023-11-05T09:53:08.952Z,82.90
2023-11-05T09:55:36.460Z,82.80
2023-11-05T09:58:03.495Z,82.90
2023-11-05T10:00:33.444Z,82.90
2023-11-05T10:03:03.803Z,83.00
2023-11-05T10:05:36.395Z,83.00
2023-11-05T10:08:06.700Z,83.20
2023-11-05T10:10:38.460Z,83.20
2023-11-05T10:13:07.007Z,83.50
2023-11-05T10:15:38.765Z,84.10
2023-11-05T10:18:07.108Z,84.50
2023-11-05T10:20:52.072Z,84.80
2023-11-05T10:23:19.406Z,84.40
2023-11-05T10:25:53.983Z,84.50
2023-11-05T10:28:21.999Z,84.60
2023-11-05T10:30:56.293Z,84.70
2023-11-05T10:33:25.594Z,84.70
2023-11-05T10:35:52.920Z,85.00
2023-11-05T10:38:20.608Z,84.90
2023-11-05T10:40:48.721Z,84.90
2023-11-05T10:43:20.857Z,85.00
2023-11-05T10:45:50.301Z,84.90
2023-11-05T10:48:17.581Z,85.00
2023-11-05T10:50:47.646Z,85.40
2023-11-05T10:53:15.131Z,85.40
2023-11-05T10:55:42.884Z,85.50
2023-11-05T10:58:18.324Z,85.90
2023-11-05T11:00:58.989Z,85.80
2023-11-05T11:03:27.725Z,85.10
2023-11-05T11:06:04.474Z,85.30
2023-11-05T11:08:33.840Z,85.20
2023-11-05T11:11:09.611Z,84.80
2023-11-05T11:13:39.618Z,84.20
2023-11-05T11:16:09.640Z,83.90
2023-11-05T11:18:40.606Z,83.50
2023-11-05T11:21:10.572Z,83.00
2023-11-05T11:23:41.361Z,82.60
2023-11-05T11:26:18.963Z,82.30
2023-11-05T11:28:47.212Z,82.00
2023-11-05T11:31:14.310Z,82.10
2023-11-05T11:33:42.068Z,81.90
2023-11-05T11:36:09.468Z,81.10
2023-11-05T11:38:38.453Z,80.80
2023-11-05T11:41:05.572Z,79.90
2023-11-05T11:43:32.715Z,80.20
2023-11-05T11:45:59.750Z,80.40
2023-11-05T11:48:27.815Z,80.50
2023-11-05T11:51:11.203Z,80.10
2023-11-05T11:53:42.032Z,80.00
2023-11-05T11:56:09.730Z,80.10
2023-11-05T11:58:41.254Z,80.30
2023-11-05T12:01:14.019Z,80.50
2023-11-05T12:03:42.001Z,80.30
2023-11-05T12:06:09.934Z,80.00
2023-11-05T12:08:47.206Z,80.10
2023-11-05T12:11:18.249Z,80.20
2023-11-05T12:13:47.639Z,79.80
2023-11-05T12:16:21.554Z,80.20
2023-11-05T12:18:51.950Z,80.00
2023-11-05T12:21:19.631Z,79.90
2023-11-05T12:23:48.844Z,79.70
2023-11-05T12:26:18.602Z,79.90
2023-11-05T12:28:46.422Z,80.20
2023-11-05T12:31:16.734Z,80.40
2023-11-05T12:33:44.367Z,80.60
2023-11-05T12:36:11.640Z,80.80
2023-11-05T12:38:39.674Z,81.10
2023-11-05T12:41:08.002Z,81.90
2023-11-05T12:43:34.939Z,82.30
2023-11-05T12:46:02.131Z,82.60
2023-11-05T12:48:32.464Z,81.90
2023-11-05T12:51:02.673Z,81.80
2023-11-05T12:53:32.987Z,82.10
2023-11-05T12:56:04.613Z,82.50
2023-11-05T12:58:34.259Z,82.80
2023-11-05T13:01:02.595Z,82.40
2023-11-05T13:03:34.076Z,81.60
2023-11-05T13:06:03.559Z,82.20
2023-11-05T13:08:31.799Z,82.10
2023-11-05T13:10:59.004Z,81.50
2023-11-05T13:13:26.447Z,81.80
2023-11-05T13:15:53.595Z,81.70
2023-11-05T13:18:25.246Z,82.10
2023-11-05T13:20:52.578Z,81.40
2023-11-05T13:23:19.812Z,81.80
2023-11-05T13:25:47.276Z,81.40
2023-11-05T13:28:14.844Z,80.90
2023-11-05T13:30:41.928Z,80.80
2023-11-05T13:33:09.038Z,79.80
2023-11-05T13:35:35.999Z,79.90
2023-11-05T13:38:07.687Z,80.50
2023-11-05T13:40:35.976Z,81.30
2023-11-05T13:43:03.531Z,81.50
2023-11-05T13:45:30.537Z,81.70
2023-11-05T13:47:57.693Z,81.70
2023-11-05T13:50:24.674Z,81.60
2023-11-05T13:52:51.585Z,81.20
2023-11-05T13:55:18.439Z,80.90
2023-11-05T13:57:45.489Z,80.50
2023-11-05T14:00:16.007Z,79.10
2023-11-05T14:02:43.568Z,79.80
2023-11-05T14:05:11.621Z,79.40
2023-11-05T14:07:43.248Z,79.80
2023-11-05T14:10:12.656Z,79.60
2023-11-05T14:12:40.895Z,80.10
2023-11-05T14:15:09.573Z,80.30
2023-11-05T14:17:37.111Z,79.70
2023-11-05T14:20:11.457Z,80.00
2023-11-05T14:22:39.405Z,80.10
2023-11-05T14:25:09.914Z,80.20
2023-11-05T14:27:37.442Z,80.50
2023-11-05T14:30:08.686Z,80.30
2023-11-05T14:32:36.074Z,80.40
2023-11-05T14:35:10.293Z,80.40
2023-11-05T14:37:37.740Z,80.20
2023-11-05T14:40:07.105Z,80.00
2023-11-05T14:42:37.037Z,79.60
2023-11-05T14:45:12.106Z,79.70
2023-11-05T14:47:47.064Z,79.80
2023-11-05T14:50:14.043Z,79.20
2023-11-05T14:52:43.784Z,78.40
2023-11-05T14:55:11.803Z,77.80
2023-11-05T14:57:39.933Z,77.80
2023-11-05T15:00:11.612Z,77.10
2023-11-05T15:02:39.654Z,78.00
2023-11-05T15:05:13.344Z,77.70
2023-11-05T15:07:41.986Z,77.40
2023-11-05T15:10:09.716Z,77.80
2023-11-05T15:12:36.770Z,77.40
2023-11-05T15:15:07.838Z,77.30
2023-11-05T15:17:35.783Z,76.80
2023-11-05T15:20:06.916Z,77.30
2023-11-05T15:22:34.117Z,77.10
2023-11-05T15:25:01.119Z,77.60
2023-11-05T15:27:31.120Z,77.20
2023-11-05T15:29:59.475Z,77.40
2023-11-05T15:32:26.604Z,77.40
2023-11-05T15:34:57.599Z,78.00
2023-11-05T15:37:24.676Z,78.00
2023-11-05T15:39:54.346Z,77.90
2023-11-05T15:42:21.554Z,77.00
2023-11-05T15:44:50.871Z,77.20
2023-11-05T15:47:17.950Z,77.00
2023-11-05T15:49:45.726Z,76.90
2023-11-05T15:52:12.766Z,77.00
2023-11-05T15:54:45.266Z,76.90
2023-11-05T15:57:12.433Z,76.40
2023-11-05T15:59:39.431Z,76.10
2023-11-05T16:02:08.460Z,74.60
2023-11-05T16:04:38.040Z,75.70
2023-11-05T16:07:05.394Z,76.20
2023-11-05T16:09:33.120Z,75.30
2023-11-05T16:12:00.952Z,75.80
2023-11-05T16:14:28.944Z,75.10
2023-11-05T16:16:55.810Z,75.40
2023-11-05T16:19:23.520Z,74.90
2023-11-05T16:21:51.014Z,74.60
2023-11-05T16:24:17.938Z,73.70
2023-11-05T16:26:44.863Z,74.20
2023-11-05T16:29:14.090Z,74.30
2023-11-05T16:31:41.153Z,74.30
2023-11-05T16:34:08.225Z,73.70
2023-11-05T16:36:37.400Z,74.40
2023-11-05T16:39:04.450Z,74.20
2023-11-05T16:41:31.967Z,74.60
2023-11-05T16:43:59.208Z,74.60
2023-11-05T16:46:26.617Z,75.00
2023-11-05T16:48:53.998Z,75.60
2023-11-05T16:51:21.295Z,75.70
2023-11-05T16:53:48.224Z,75.80
2023-11-05T16:56:15.155Z,75.80
2023-11-05T16:58:43.558Z,75.90
2023-11-05T17:01:17.889Z,76.30
2023-11-05T17:03:48.804Z,76.10
2023-11-05T17:06:16.790Z,76.00
2023-11-05T17:08:44.748Z,75.50
2023-11-05T17:11:12.037Z,75.90
2023-11-05T17:13:41.933Z,75.50
2023-11-05T17:16:08.983Z,75.50
2023-11-05T17:18:36.338Z,75.20
2023-11-05T17:21:03.251Z,75.40
2023-11-05T17:23:30.146Z,75.30
2023-11-05T17:25:57.382Z,75.50
2023-11-05T17:28:24.261Z,75.40
2023-11-05T17:30:51.328Z,74.70
2023-11-05T17:33:18.651Z,74.70
2023-11-05T17:35:46.155Z,75.10
2023-11-05T17:38:14.992Z,74.90
2023-11-05T17:40:42.031Z,74.90
2023-11-05T17:43:11.895Z,74.90
2023-11-05T17:45:41.490Z,74.40
2023-11-05T17:48:10.327Z,74.60
2023-11-05T17:50:37.815Z,74.30
2023-11-05T17:53:04.720Z,74.60
2023-11-05T17:55:32.273Z,74.20
2023-11-05T17:57:59.206Z,74.60
2023-11-05T18:00:26.382Z,74.60
2023-11-05T18:02:55.953Z,74.50
2023-11-05T18:05:23.064Z,74.60
2023-11-05T18:07:49.966Z,74.70
2023-11-05T18:10:17.367Z,75.00
2023-11-05T18:12:44.354Z,75.10
2023-11-05T18:15:11.509Z,75.00
2023-11-05T18:17:38.618Z,75.20
2023-11-05T18:20:06.858Z,75.30
2023-11-05T18:22:33.806Z,75.40
2023-11-05T18:25:00.907Z,75.60
2023-11-05T18:27:28.397Z,75.70
2023-11-05T18:29:55.246Z,75.90
2023-11-05T18:32:23.826Z,76.30
2023-11-05T18:34:50.950Z,76.20
2023-11-05T18:37:18.520Z,76.10
2023-11-05T18:39:45.616Z,76.20
2023-11-05T18:42:12.500Z,76.30
2023-11-05T18:44:42.937Z,76.50
2023-11-05T18:47:10.016Z,76.40
2023-11-05T18:49:36.937Z,76.50
2023-11-05T18:52:04.312Z,76.50
2023-11-05T18:54:31.266Z,76.50
2023-11-05T18:56:58.194Z,76.20
2023-11-05T18:59:25.993Z,76.20
2023-11-05T19:01:54.885Z,76.40
2023-11-05T19:04:22.278Z,76.30
2023-11-05T19:06:51.521Z,76.30
2023-11-05T19:09:18.564Z,76.40
2023-11-05T19:11:51.041Z,76.50
2023-11-05T19:14:18.078Z,76.30
2023-11-05T19:16:45.694Z,76.40
2023-11-05T19:19:12.909Z,76.60
2023-11-05T19:21:41.178Z,76.70
2023-11-05T19:24:08.353Z,76.80
2023-11-05T19:26:35.263Z,77.00
2023-11-05T19:29:02.634Z,77.20
2023-11-05T19:31:30.208Z,77.00
2023-11-05T19:33:57.284Z,77.10
2023-11-05T19:36:26.494Z,77.00
2023-11-05T19:38:53.788Z,76.70
2023-11-05T19:41:31.382Z,76.60
2023-11-05T19:43:58.786Z,76.50
2023-11-05T19:46:25.763Z,76.40
2023-11-05T19:48:52.749Z,76.40
2023-11-05T19:51:19.808Z,76.20
2023-11-05T19:53:46.744Z,76.00
2023-11-05T19:56:25.955Z,75.90
2023-11-05T19:58:56.578Z,76.10
2023-11-05T20:01:23.944Z,76.20
2023-11-05T20:03:53.957Z,76.30
2023-11-05T20:06:21.403Z,76.40
2023-11-05T20:08:49.044Z,76.60
2023-11-05T20:11:16.948Z,76.60
2023-11-05T20:13:45.428Z,76.70
2023-11-05T20:16:13.251Z,76.90
2023-11-05T20:18:42.671Z,77.10
2023-11-05T20:21:13.979Z,77.10
2023-11-05T20:23:42.995Z,77.10
2023-11-05T20:26:10.264Z,77.20
2023-11-05T20:28:41.131Z,77.30
2023-11-05T20:31:10.182Z,77.40
2023-11-05T20:33:37.260Z,77.60
2023-11-05T20:36:04.762Z,77.80
2023-11-05T20:38:31.782Z,77.70
2023-11-05T20:40:59.094Z,77.80
2023-11-05T20:43:26.641Z,77.60
2023-11-05T20:45:56.473Z,77.60
2023-11-05T20:48:23.477Z,77.40
2023-11-05T20:50:50.536Z,77.40
2023-11-05T20:53:17.743Z,77.50
2023-11-05T20:55:44.842Z,77.80
2023-11-05T20:58:12.022Z,78.10
2023-11-05T21:00:39.087Z,78.10
2023-11-05T21:03:06.100Z,78.20
2023-11-05T21:05:34.307Z,78.20
2023-11-05T21:08:01.369Z,78.10
2023-11-05T21:10:28.292Z,78.10
2023-11-05T21:12:58.822Z,77.90
2023-11-05T21:15:25.863Z,78.00
2023-11-05T21:17:53.194Z,77.90
2023-11-05T21:20:20.160Z,77.90
2023-11-05T21:22:47.646Z,77.50
2023-11-05T21:25:14.599Z,77.50
2023-11-05T21:27:42.203Z,77.40
2023-11-05T21:30:11.394Z,77.20
2023-11-05T21:32:39.329Z,77.10
2023-11-05T21:35:07.542Z,77.10
2023-11-05T21:37:34.596Z,77.30
2023-11-05T21:40:01.697Z,77.20
2023-11-05T21:42:29.185Z,77.20
2023-11-05T21:44:59.371Z,77.10
2023-11-05T21:47:26.330Z,77.00
2023-11-05T21:49:53.392Z,77.00
2023-11-05T21:52:21.250Z,77.10
2023-11-05T21:54:48.478Z,77.10
2023-11-05T21:57:16.026Z,77.10
2023-11-05T21:59:43.205Z,77.10
2023-11-05T22:02:10.425Z,77.20
2023-11-05T22:04:37.964Z,77.30
2023-11-05T22:07:07.141Z,77.40
2023-11-05T22:09:34.190Z,77.50
2023-11-05T22:12:01.120Z,77.70
2023-11-05T22:14:30.463Z,77.90
2023-11-05T22:17:01.341Z,78.10
2023-11-05T22:19:28.339Z,78.20
2023-11-05T22:21:55.372Z,78.50
2023-11-05T22:24:22.334Z,78.60
2023-11-05T22:26:49.159Z,78.80
2023-11-05T22:29:16.315Z,78.90
2023-11-05T22:31:43.902Z,79.00
2023-11-05T22:34:10.987Z,79.20
2023-11-05T22:36:37.960Z,79.20
2023-11-05T22:39:05.028Z,79.20
2023-11-05T22:41:33.516Z,79.20
2023-11-05T22:44:01.289Z,79.10
2023-11-05T22:46:28.385Z,79.40
2023-11-05T22:48:55.363Z,79.80
2023-11-05T22:51:22.671Z,80.20
2023-11-05T22:53:50.074Z,80.70
2023-11-05T22:56:17.479Z,80.90
2023-11-05T22:58:45.026Z,81.20
2023-11-05T23:01:13.889Z,81.40
2023-11-05T23:03:41.928Z,81.40
2023-11-05T23:06:09.422Z,81.70
2023-11-05T23:08:36.425Z,81.70
2023-11-05T23:11:04.027Z,81.80
2023-11-05T23:13:31.841Z,82.00
2023-11-05T23:15:58.873Z,82.20
2023-11-05T23:18:25.975Z,82.40
2023-11-05T23:20:53.185Z,82.40
2023-11-05T23:23:20.246Z,82.40
2023-11-05T23:25:47.209Z,82.30
2023-11-05T23:28:16.254Z,82.10
2023-11-05T23:30:43.245Z,82.00
2023-11-05T23:33:10.231Z,82.10
2023-11-05T23:35:37.336Z,82.10
2023-11-05T23:38:04.390Z,82.30
2023-11-05T23:40:31.530Z,82.50
2023-11-05T23:42:58.843Z,82.60
2023-11-05T23:45:26.784Z,82.60
2023-11-05T23:47:54.043Z,82.70
2023-11-05T23:50:21.285Z,82.80
2023-11-05T23:52:48.587Z,83.00
2023-11-05T23:55:20.422Z,82.90
2023-11-05T23:57:50.659Z,82.90
